createdAt,value
2024-01-22T00:19:01.999Z,100754.80
2024-01-22T00:24:03.997Z,100754.40
2024-01-22T00:29:05.549Z,100736.80
2024-01-22T00:34:07.626Z,100745.60
2024-01-22T00:39:09.224Z,100735.40
2024-01-22T00:44:10.818Z,100722.80
2024-01-22T00:49:12.856Z,100706.20
2024-01-22T00:54:14.466Z,100709.60
2024-01-22T00:59:16.012Z,100709.60
2024-01-22T01:04:17.571Z,100677.00
2024-01-22T01:09:19.249Z,100668.80
2024-01-22T01:14:20.795Z,100662.00
2024-01-22T01:19:22.482Z,100655.80
2024-01-22T01:24:24.164Z,100630.80
2024-01-22T01:29:26.433Z,100619.80
2024-01-22T01:34:28.066Z,100633.00
2024-01-22T01:39:29.720Z,100654.40
2024-01-22T01:44:52.016Z,100651.80
2024-01-22T01:49:55.404Z,100632.40
2024-01-22T01:54:58.129Z,100631.40
2024-01-22T02:00:01.434Z,100625.60
2024-01-22T02:05:03.607Z,100628.80
2024-01-22T02:10:06.322Z,100614.60
2024-01-22T02:15:09.206Z,100602.40
2024-01-22T02:20:11.933Z,100587.60
2024-01-22T02:25:14.322Z,100569.60
2024-01-22T02:30:16.396Z,100564.20
2024-01-22T02:35:18.282Z,100566.00
2024-01-22T02:40:20.268Z,100552.60
2024-01-22T02:45:21.831Z,100548.40
2024-01-22T02:50:23.460Z,100538.40
2024-01-22T02:55:25.067Z,100535.00
2024-01-22T03:00:26.706Z,100534.60
2024-01-22T03:05:28.396Z,100527.80
2024-01-22T03:10:36.536Z,100520.60
2024-01-22T03:15:38.492Z,100502.20
2024-01-22T03:20:40.417Z,100495.00
2024-01-22T03:25:41.944Z,100474.60
2024-01-22T03:30:43.574Z,100454.00
2024-01-22T03:35:46.155Z,100460.00
2024-01-22T03:40:50.830Z,100468.00
2024-01-22T03:45:52.444Z,100454.80
2024-01-22T03:50:54.831Z,100462.60
2024-01-22T03:55:57.008Z,100454.00
2024-01-22T04:00:58.704Z,100441.20
2024-01-22T04:06:00.509Z,100442.20
2024-01-22T04:11:02.146Z,100440.00
2024-01-22T04:16:04.033Z,100459.20
2024-01-22T04:21:05.574Z,100481.00
2024-01-22T04:26:07.239Z,100422.40
2024-01-22T04:31:09.090Z,100409.40
2024-01-22T04:36:16.706Z,100400.60
2024-01-22T04:41:18.558Z,100385.20
2024-01-22T04:46:20.156Z,100390.80
2024-01-22T04:51:21.786Z,100377.80
2024-01-22T04:56:23.521Z,100345.80
2024-01-22T05:01:26.372Z,100333.20
2024-01-22T05:06:29.173Z,100329.60
2024-01-22T05:11:31.914Z,100326.20
2024-01-22T05:16:34.033Z,100323.80
2024-01-22T05:21:35.728Z,100320.20
2024-01-22T05:26:37.284Z,100310.80
2024-01-22T05:31:38.970Z,100304.00
2024-01-22T05:36:40.763Z,100291.00
2024-01-22T05:41:42.676Z,100280.20
2024-01-22T05:46:44.270Z,100262.40
2024-01-22T05:51:46.086Z,100249.80
2024-01-22T05:56:47.688Z,100239.40
2024-01-22T06:01:50.015Z,100220.80
2024-01-22T06:06:51.863Z,100216.60
2024-01-22T06:11:53.604Z,100207.00
2024-01-22T06:16:55.240Z,100212.80
2024-01-22T06:21:56.903Z,100218.60
2024-01-22T06:26:58.609Z,100224.20
2024-01-22T06:32:00.225Z,100211.00
2024-01-22T06:37:01.924Z,100214.40
2024-01-22T06:42:04.101Z,100218.00
2024-01-22T06:47:06.423Z,100212.40
2024-01-22T06:52:07.977Z,100195.60
2024-01-22T06:57:09.751Z,100193.60
2024-01-22T07:02:11.289Z,100196.80
2024-01-22T07:07:14.449Z,100207.00
2024-01-22T07:12:16.365Z,100204.40
2024-01-22T07:17:21.767Z,100201.20
2024-01-22T07:22:23.460Z,100187.40
2024-01-22T07:27:25.083Z,100178.80
2024-01-22T07:32:26.909Z,100162.80
2024-01-22T07:37:28.512Z,100150.20
2024-01-22T07:42:30.138Z,100139.80
2024-01-22T07:47:31.958Z,100140.00
2024-01-22T07:52:34.159Z,100140.40
2024-01-22T07:57:35.751Z,100128.40
2024-01-22T08:02:42.010Z,100095.60
2024-01-22T08:07:44.534Z,100091.00
2024-01-22T08:12:47.057Z,100086.40
2024-01-22T08:17:49.096Z,100068.80
2024-01-22T08:22:51.403Z,100070.20
2024-01-22T08:27:54.753Z,100044.20
2024-01-22T08:32:56.723Z,100033.60
2024-01-22T08:37:58.462Z,100036.40
2024-01-22T08:43:00.033Z,100029.20
2024-01-22T08:48:05.070Z,100009.40
2024-01-22T08:53:06.653Z,100000.00
2024-01-22T08:58:10.933Z,99993.40
2024-01-22T09:03:26.848Z,99971.00
2024-01-22T09:08:29.543Z,99963.60
2024-01-22T09:13:31.337Z,99948.40
2024-01-22T09:18:34.652Z,99893.80
2024-01-22T09:23:40.829Z,99889.60
2024-01-22T09:29:03.846Z,99863.20
2024-01-22T09:34:09.215Z,99897.80
2024-01-22T09:39:20.913Z,99892.40
2024-01-22T09:44:25.428Z,99890.00
2024-01-22T09:49:27.653Z,99888.80
2024-01-22T09:54:32.026Z,99891.00
2024-01-22T09:59:42.131Z,99874.00
2024-01-22T10:04:53.760Z,99867.40
2024-01-22T10:09:55.769Z,99859.60
2024-01-22T10:14:57.297Z,99869.20
2024-01-22T10:20:08.436Z,99876.40
2024-01-22T10:25:10.085Z,99865.20
2024-01-22T10:30:18.014Z,99850.40
2024-01-22T10:35:28.631Z,99844.60
2024-01-22T10:40:33.640Z,99826.20
2024-01-22T10:45:35.322Z,99826.40
2024-01-22T10:50:45.691Z,99807.80
2024-01-22T10:55:58.274Z,99790.20
2024-01-22T11:01:22.054Z,99773.40
2024-01-22T11:06:32.550Z,99745.60
2024-01-22T11:11:43.690Z,99744.60
2024-01-22T11:16:45.394Z,99727.60
2024-01-22T11:21:53.420Z,99710.00
2024-01-22T11:26:55.330Z,99705.60
2024-01-22T11:31:59.664Z,99708.20
2024-01-22T11:37:01.325Z,99699.00
2024-01-22T11:42:19.078Z,99691.60
2024-01-22T11:47:23.830Z,99702.20
2024-01-22T11:52:27.779Z,99673.20
2024-01-22T11:57:36.491Z,99656.00
2024-01-22T12:02:45.288Z,99630.60
2024-01-22T12:07:52.639Z,99625.60
2024-01-22T12:13:08.219Z,99631.60
2024-01-22T12:18:12.725Z,99628.40
2024-01-22T12:23:30.250Z,99621.40
2024-01-22T12:28:32.294Z,99612.80
2024-01-22T12:33:34.333Z,99608.80
2024-01-22T12:38:58.384Z,99597.40
2024-01-22T12:44:01.332Z,99602.40
2024-01-22T12:49:06.027Z,99581.60
2024-01-22T12:54:38.249Z,99580.40
2024-01-22T12:59:39.890Z,99572.40
2024-01-22T13:04:43.421Z,99554.60
2024-01-22T13:09:46.476Z,99549.80
2024-01-22T13:14:52.466Z,99546.60
2024-01-22T13:19:55.235Z,99545.60
2024-01-22T13:24:57.352Z,99540.60
2024-01-22T13:29:59.239Z,99533.20
2024-01-22T13:35:00.901Z,99519.60
2024-01-22T13:40:06.842Z,99516.80
2024-01-22T13:45:12.010Z,99498.40
2024-01-22T13:50:14.163Z,99499.40
2024-01-22T13:55:16.958Z,99495.60
2024-01-22T14:00:19.641Z,99484.20
2024-01-22T14:05:31.395Z,99488.40
2024-01-22T14:10:33.225Z,99485.60
2024-01-22T14:15:38.089Z,99481.40
2024-01-22T14:20:43.824Z,99486.80
2024-01-22T14:25:46.279Z,99482.40
2024-01-22T14:31:10.638Z,99490.40
2024-01-22T14:36:12.477Z,99494.20
2024-01-22T14:41:17.953Z,99486.80
2024-01-22T14:46:20.698Z,99486.00
2024-01-22T14:51:22.386Z,99483.40
2024-01-22T14:56:25.063Z,99483.20
2024-01-22T15:01:26.860Z,99483.40
2024-01-22T15:06:28.498Z,99477.20
2024-01-22T15:11:33.778Z,99478.60
2024-01-22T15:16:35.428Z,99474.00
2024-01-22T15:21:45.143Z,99471.40
2024-01-22T15:26:48.405Z,99477.20
2024-01-22T15:31:50.886Z,99478.40
2024-01-22T15:36:53.821Z,99475.40
2024-01-22T15:42:03.182Z,99469.20
2024-01-22T15:47:04.861Z,99469.00
2024-01-22T15:52:08.607Z,99463.40
2024-01-22T15:57:10.900Z,99473.40
2024-01-22T16:02:12.911Z,99468.80
2024-01-22T16:07:17.408Z,99476.80
2024-01-22T16:12:22.279Z,99476.40
2024-01-22T16:17:25.664Z,99467.60
2024-01-22T16:22:30.228Z,99470.20
2024-01-22T16:27:32.145Z,99465.20
2024-01-22T16:32:34.513Z,99469.80
2024-01-22T16:37:39.269Z,99469.40
2024-01-22T16:42:44.237Z,99458.00
2024-01-22T16:47:56.974Z,99450.20
2024-01-22T16:53:01.243Z,99459.40
2024-01-22T16:58:02.872Z,99452.40
2024-01-22T17:03:04.887Z,99443.40
2024-01-22T17:08:15.314Z,99432.60
2024-01-22T17:13:20.485Z,99422.40
2024-01-22T17:23:42.126Z,99443.20
2024-01-22T17:28:44.088Z,99442.80
2024-01-22T17:33:50.482Z,99426.00
2024-01-22T17:38:52.552Z,99428.80
2024-01-22T17:43:55.509Z,99425.00
2024-01-22T17:48:59.525Z,99429.80
2024-01-22T17:54:01.582Z,99435.80
2024-01-22T17:59:03.218Z,99433.20
2024-01-22T18:04:07.863Z,99420.20
2024-01-22T18:09:15.408Z,99422.80
2024-01-22T18:14:17.070Z,99416.80
2024-01-22T18:19:19.151Z,99405.60
2024-01-22T18:24:20.875Z,99422.00
2024-01-22T18:29:26.450Z,99417.40
2024-01-22T18:34:29.942Z,99411.40
2024-01-22T18:39:31.658Z,99408.00
2024-01-22T18:44:38.487Z,99408.40
2024-01-22T18:49:46.883Z,99411.00
2024-01-22T18:54:49.378Z,99406.80
2024-01-22T18:59:53.362Z,99404.00
2024-01-22T19:04:58.496Z,99404.20
2024-01-22T19:10:00.065Z,99394.00
2024-01-22T19:15:01.739Z,99408.80
2024-01-22T19:20:06.063Z,99416.20
2024-01-22T19:25:12.929Z,99411.60
2024-01-22T19:30:14.797Z,99405.20
2024-01-22T19:35:21.833Z,99400.60
2024-01-22T19:40:23.510Z,99397.60
2024-01-22T19:45:25.440Z,99385.40
2024-01-22T19:50:27.255Z,99383.20
2024-01-22T19:55:28.834Z,99383.60
2024-01-22T20:00:30.683Z,99387.20
2024-01-22T20:05:35.253Z,99398.20
2024-01-22T20:10:37.962Z,99393.40
2024-01-22T20:15:39.556Z,99393.60
2024-01-22T20:20:41.153Z,99398.60
2024-01-22T20:25:46.255Z,99393.40
2024-01-22T20:30:48.832Z,99397.40
2024-01-22T20:35:51.707Z,99403.00
2024-01-22T20:40:57.856Z,99399.00
2024-01-22T20:45:59.419Z,99402.80
2024-01-22T20:51:01.327Z,99406.20
2024-01-22T20:56:04.049Z,99410.80
2024-01-22T21:01:09.078Z,99412.60
2024-01-22T21:06:11.731Z,99423.80
2024-01-22T21:11:13.870Z,99418.00
2024-01-22T21:16:17.593Z,99420.40
2024-01-22T21:21:20.144Z,99421.20
2024-01-22T21:26:22.670Z,99432.60
2024-01-22T21:31:28.963Z,99448.80
2024-01-22T21:36:30.784Z,99462.60
2024-01-22T21:41:34.364Z,99469.80
2024-01-22T21:46:37.373Z,99469.20
2024-01-22T21:51:39.137Z,99463.60
2024-01-22T21:56:40.994Z,99469.80
2024-01-22T22:01:44.113Z,99478.00
2024-01-22T22:06:50.537Z,99486.20
2024-01-22T22:12:02.203Z,99496.20
2024-01-22T22:17:05.207Z,99505.60
2024-01-22T22:22:08.544Z,99500.40
2024-01-22T22:27:17.937Z,99509.60
2024-01-22T22:32:22.243Z,99520.40
2024-01-22T22:37:23.774Z,99523.80
2024-01-22T22:42:25.445Z,99541.80
2024-01-22T22:47:27.042Z,99554.20
2024-01-22T22:52:28.528Z,99560.00
2024-01-22T22:57:31.918Z,99570.60
2024-01-22T23:02:34.062Z,99573.20
2024-01-22T23:07:35.700Z,99585.20
2024-01-22T23:12:38.034Z,99578.00
2024-01-22T23:17:39.884Z,99570.60
2024-01-22T23:22:44.536Z,99585.00
2024-01-22T23:27:46.321Z,99599.00
2024-01-22T23:32:48.353Z,99607.00
2024-01-22T23:37:52.245Z,99623.00
2024-01-22T23:42:55.204Z,99632.60
2024-01-22T23:47:57.029Z,99634.00
2024-01-22T23:53:00.479Z,99636.40
2024-01-22T23:58:02.161Z,99637.00
